• Join FlightAware (Why Join?)
  • Login
  • US Flag 
02:30AM EST


 

Airport Tracker/Info


-or-


 

Live Flight TrackerFlight Track Log ✈ UAL149 ✈ 04-May-2013 ✈ KDEN - KTPA

Flight Track Log - Related Links

Times and Time Zones

All times are in EDT time to prevent confusion due to time zone crossing. See the UAL149 flight status page for this flight to view local times or setup timezone preferences in your user account.

Time Position Orientation Groundspeed Altitude Reporting Facility
EDT Latitude Longitude Course Direction KTS MPH feet Rate Location/Type
12:27PM 39.8764 -104.5975 106° East 168 193 6,600  Level Denver Center
12:28PM 39.8500 -104.5167 113° Southeast 242 278 8,800 1,740 Climbing Denver TRACON
12:29PM 39.8186 -104.4203 113° Southeast 287 330 10,300 1,740 Climbing Denver Center
12:30PM 39.7814 -104.3108 114° Southeast 330 380 12,500 2,340 Climbing Denver Center
12:31PM 39.7375 -104.1836 114° Southeast 362 417 15,200 2,460 Climbing Denver Center
12:32PM 39.5503 -103.8621 108° East  Level Estimated
12:32PM 39.6931 -104.0603 115° Southeast 378 435 17,700  Level Denver Center
12:33PM 39.4873 -103.7008 106° East  Level Estimated
12:33PM 39.6478 -103.9322 115° Southeast 391 450 20,200  Level Denver Center
12:34PM 39.5903 -103.7953 119° Southeast 399 459 22,600 1,860 Climbing Denver Center
12:36PM 39.5448 -103.6180 106° East  Level FlightAware Approximate
12:37PM 39.5158 -103.5047 106° East 433 498 26,000  Level Denver Center
12:38PM 39.4750 -103.3514 109° East 445 512 27,500 1,200 Climbing Denver Center
12:39PM 39.4336 -103.1928 109° East 458 527 28,600 960 Climbing Denver Center
12:40PM 39.3886 -103.0256 109° East 485 558 29,600 1,140 Climbing Denver Center
12:41PM 39.3356 -102.8272 109° East 499 574 31,000 1,500 Climbing Denver Center
12:42PM 39.2911 -102.6667 110° East 498 573 32,800 1,500 Climbing Denver Center
12:43PM 39.2406 -102.4814 109° East 491 565 34,200 1,440 Climbing Denver Center
12:44PM 39.1981 -102.3231 109° East 489 563 35,800 1,320 Climbing Denver Center
12:45PM 39.1553 -102.1711 110° East 474 545 37,000 540 Climbing Denver Center
12:46PM 39.0986 -102.0006 113° Southeast 470 541 37,000  Level Denver Center
12:47PM 39.0061 -101.8972 139° Southeast 463 533 37,000  Level Denver Center
12:48PM 38.8956 -101.7756 139° Southeast 467 537 37,000  Level Denver Center
12:49PM 38.7694 -101.6372 139° Southeast 468 539 37,000  Level Denver Center
12:50PM 38.6733 -101.5333 140° Southeast 472 543 37,000  Level Denver Center
12:51PM 38.5606 -101.4119 140° Southeast 475 547 37,000  Level Denver Center
12:52PM 38.4636 -101.3078 140° Southeast 475 547 37,000  Level Denver Center
12:53PM 38.3656 -101.2008 139° Southeast 482 555 37,000  Level Denver Center
12:54PM 38.2494 -101.0764 140° Southeast 489 563 37,000  Level Denver Center
12:55PM 38.1481 -100.9683 140° Southeast 493 567 37,000  Level Denver Center
12:56PM 38.0294 -100.8425 140° Southeast 495 570 37,000  Level Denver Center
12:57PM 37.9953 -100.8056 140° Southeast 495 570 37,000  Level Kansas City Center
12:58PM 37.8956 -100.6958 139° Southeast 492 566 37,000  Level Kansas City Center
12:59PM 37.7864 -100.5536 134° Southeast 497 572 37,000  Level Kansas City Center
01:00PM 37.6914 -100.4339 135° Southeast 499 574 37,000  Level Kansas City Center
01:01PM 37.5969 -100.3156 135° Southeast 498 573 37,000  Level Kansas City Center
01:02PM 37.4864 -100.1756 135° Southeast 500 575 37,000  Level Kansas City Center
01:03PM 37.3922 -100.0561 135° Southeast 501 577 37,000  Level Kansas City Center
01:04PM 37.2806 -99.9175 135° Southeast 503 579 37,000  Level Kansas City Center
01:05PM 37.1839 -99.7972 135° Southeast 507 583 37,000  Level Kansas City Center
01:06PM 37.0881 -99.6778 135° Southeast 508 585 37,000  Level Kansas City Center
01:07PM 36.9739 -99.5381 136° Southeast 511 588 37,000  Level Kansas City Center
01:08PM 36.8761 -99.4194 136° Southeast 512 589 37,000  Level Kansas City Center
01:09PM 36.7636 -99.2789 135° Southeast 513 590 37,000  Level Kansas City Center
01:10PM 36.6650 -99.1603 136° Southeast 513 590 37,000  Level Kansas City Center
01:11PM 36.5717 -99.0475 136° Southeast 518 596 37,000  Level Kansas City Center
01:12PM 36.4536 -98.9050 136° Southeast 520 598 37,000  Level Kansas City Center
01:13PM 36.3481 -98.7797 136° Southeast 523 602 37,000  Level Kansas City Center
01:14PM 36.2439 -98.6514 135° Southeast 528 608 37,000  Level Kansas City Center
01:15PM 36.1381 -98.5272 137° Southeast 526 605 37,000  Level Kansas City Center
01:16PM 36.0103 -98.3747 136° Southeast 531 611 37,000  Level Kansas City Center
01:17PM 35.9022 -98.2469 136° Southeast 535 616 37,000  Level Kansas City Center
01:18PM 35.7944 -98.1214 137° Southeast 536 617 37,000  Level Kansas City Center
01:19PM 35.7733 -98.0942 134° Southeast 534 615 37,000  Level Fort Worth Center
01:20PM 35.6636 -97.9653 136° Southeast 534 615 37,000  Level Fort Worth Center
01:21PM 35.5536 -97.8397 137° Southeast 539 620 37,000  Level Fort Worth Center
01:22PM 35.4433 -97.7142 137° Southeast 539 620 37,000  Level Fort Worth Center
01:23PM 35.3353 -97.5867 136° Southeast 539 620 37,000  Level Fort Worth Center
01:24PM 35.2311 -97.4236 128° Southeast 544 626 37,000  Level Fort Worth Center
01:25PM 35.1392 -97.2789 128° Southeast 549 632 37,000  Level Fort Worth Center
01:26PM 35.0492 -97.1372 128° Southeast 541 623 37,000  Level Fort Worth Center
01:27PM 34.9531 -96.9906 129° Southeast 536 617 37,000  Level Fort Worth Center
01:28PM 34.8586 -96.8492 129° Southeast 536 617 37,000  Level Fort Worth Center
01:29PM 34.7639 -96.7083 129° Southeast 536 617 37,000  Level Fort Worth Center
01:30PM 34.6714 -96.5703 129° Southeast 536 617 37,000  Level Fort Worth Center
01:31PM 34.5783 -96.4272 128° Southeast 536 617 37,000 60 Level Fort Worth Center
01:32PM 34.4856 -96.2900 129° Southeast 536 617 37,200 420 Climbing Fort Worth Center
01:33PM 34.3944 -96.1550 129° Southeast 530 610 37,900 360 Climbing Fort Worth Center
01:34PM 34.3033 -96.0233 130° Southeast 525 604 38,000  Climbing Fort Worth Center
01:35PM 34.2122 -95.8867 129° Southeast 520 598 38,000  Level Fort Worth Center
01:36PM 34.1206 -95.7478 129° Southeast 520 598 38,000  Level Fort Worth Center
01:37PM 34.0269 -95.6117 130° Southeast 520 598 38,000  Level Fort Worth Center
01:38PM 33.9372 -95.4758 129° Southeast 520 598 38,000  Level Fort Worth Center
01:39PM 33.8433 -95.3403 130° Southeast 520 598 38,000  Level Fort Worth Center
01:40PM 33.7511 -95.2050 129° Southeast 520 598 38,000  Level Fort Worth Center
01:41PM 33.6569 -95.0703 130° Southeast 520 598 38,000  Level Fort Worth Center
01:42PM 33.5647 -94.9356 129° Southeast 520 598 38,000 60 Level Fort Worth Center
01:43PM 33.4742 -94.8011 129° Southeast 520 598 38,200 300 Climbing Fort Worth Center
01:44PM 33.3775 -94.6697 131° Southeast 520 598 38,600 180 Climbing Fort Worth Center
01:45PM 33.2869 -94.5383 129° Southeast 520 598 38,600 120 Level Fort Worth Center
01:46PM 33.2028 -94.4194 130° Southeast 520 598 38,900 180 Climbing Fort Worth Center
01:47PM 33.1119 -94.2911 130° Southeast 520 598 39,000  Climbing Fort Worth Center
01:48PM 33.0167 -94.1581 130° Southeast 520 598 39,000  Level Fort Worth Center
01:49PM 32.9256 -94.0253 129° Southeast 520 598 39,000  Level Fort Worth Center
01:50PM 32.8322 -93.8953 130° Southeast 520 598 39,000  Level Fort Worth Center
01:51PM 32.7306 -93.7708 134° Southeast 520 598 39,000  Level Fort Worth Center
01:52PM 32.6150 -93.6694 144° Southeast 510 587 39,000  Level Fort Worth Center
01:54PM 32.3931 -93.4781 144° Southeast 504 580 39,000  Level Houston Center
01:55PM 32.2803 -93.3803 144° Southeast 502 578 39,000  Level Houston Center
01:56PM 32.1675 -93.2817 143° Southeast 503 579 39,000  Level Houston Center
01:57PM 32.0542 -93.1847 144° Southeast 502 578 39,000  Level Houston Center
01:58PM 31.9403 -93.0867 144° Southeast 506 582 39,000  Level Houston Center
01:59PM 31.8044 -92.9678 143° Southeast 506 582 39,000  Level Houston Center
02:00PM 31.7042 -92.8822 144° Southeast 507 583 39,000  Level Houston Center
02:01PM 31.5894 -92.7839 144° Southeast 510 587 39,000 -60 Level Houston Center
02:02PM 31.4528 -92.6672 144° Southeast 507 583 38,900 -60 Descending Houston Center
02:03PM 31.3372 -92.5692 144° Southeast 510 587 38,900  Level Houston Center
02:04PM 31.2272 -92.4667 141° Southeast 506 582 39,000  Climbing Houston Center
02:05PM 31.1261 -92.3461 134° Southeast 512 589 39,000  Level Houston Center
02:06PM 31.0264 -92.2283 135° Southeast 513 590 39,000  Level Houston Center
02:07PM 30.9267 -92.1094 134° Southeast 514 592 39,000  Level Houston Center
02:08PM 30.8081 -91.9692 135° Southeast 508 585 39,000  Level Houston Center
02:09PM 30.7086 -91.8533 135° Southeast 507 583 39,000  Level Houston Center
02:10PM 30.6097 -91.7381 135° Southeast 504 580 39,000  Level Houston Center
02:11PM 30.5117 -91.6231 135° Southeast 502 578 39,000  Level Houston Center
02:12PM 30.4167 -91.4819 128° Southeast 508 585 39,000  Level Houston Center
02:13PM 30.3439 -91.3425 121° Southeast 508 585 39,000  Level Houston Center
02:14PM 30.2689 -91.2042 122° Southeast 509 586 39,000  Level Houston Center
02:15PM 30.1950 -91.0642 121° Southeast 512 589 39,000  Level Houston Center
02:16PM 30.1189 -90.9264 123° Southeast 511 588 39,000  Level Houston Center
02:17PM 30.0439 -90.7892 122° Southeast 510 587 39,000 -60 Level Houston Center
02:18PM 29.9553 -90.6236 122° Southeast 508 585 38,900  Descending Houston Center
02:19PM 29.8806 -90.4869 122° Southeast 507 583 39,000  Climbing Houston Center
02:20PM 29.8050 -90.3514 123° Southeast 506 582 38,900  Descending Houston Center
02:21PM 29.7306 -90.2153 122° Southeast 505 581 39,000  Climbing Houston Center
02:22PM 29.6558 -90.0794 122° Southeast 506 582 39,000  Level Houston Center
02:23PM 29.5658 -89.9181 123° Southeast 505 581 39,000 -60 Level Houston Center
02:24PM 29.5025 -89.7767 117° Southeast 502 578 38,900  Descending Houston Center
02:26PM 29.4592 -89.6233 108° East 507 583 39,000  Climbing Houston Center
02:27PM 29.4158 -89.4689 108° East 512 589 39,000  Level Houston Center
02:28PM 29.3725 -89.3172 108° East 505 581 39,000 -60 Level Houston Center
02:29PM 29.3206 -89.1361 108° East 501 577 38,900  Descending Houston Center
02:30PM 29.2772 -88.9850 108° East 501 577 39,000  Climbing Houston Center
02:31PM 29.2322 -88.8331 109° East 504 580 39,000  Level Houston Center
02:32PM 29.1883 -88.6792 108° East 510 587 39,000  Level Houston Center
02:33PM 29.1436 -88.5272 109° East 507 583 39,000  Level Houston Center
02:34PM 29.0981 -88.3758 109° East 505 581 39,000  Level Houston Center
02:35PM 29.0439 -88.1919 109° East 511 588 39,000  Level Houston Center
02:36PM 29.0047 -88.0542 108° East 508 585 39,000 -60 Level Houston Center
02:37PM 28.9742 -87.8967 102° East 510 587 38,900 -60 Descending Houston Center
02:38PM 28.9350 -87.7072 103° East 512 589 38,900  Level Houston Center
02:39PM 28.9025 -87.5503 103° East 511 588 39,000  Climbing Houston Center
02:40PM 28.8706 -87.3939 103° East 509 586 39,000  Level Houston Center
02:40PM 28.8558 -87.3275 104° East 489 563 39,000 -120 Level Jacksonville Center
02:41PM 28.8236 -87.1719 103° East 496 571 38,900  Descending Jacksonville Center
02:42PM 28.7950 -87.0217 102° East 496 571 39,000  Climbing Jacksonville Center
02:43PM 28.7564 -86.8639 106° East 496 571 39,000  Level Jacksonville Center
02:44PM 28.7275 -86.7089 102° East 501 577 39,000  Level Jacksonville Center
02:45PM 28.6925 -86.5536 104° East 501 577 39,000  Level Jacksonville Center
02:46PM 28.6594 -86.3939 103° East 496 571 39,000  Level Jacksonville Center
02:47PM 28.6239 -86.2367 104° East 505 581 39,000 -60 Level Jacksonville Center
02:48PM 28.5883 -86.0817 105° East 505 581 38,900 -300 Descending Jacksonville Center
02:49PM 28.5544 -85.9294 104° East 505 581 38,400 -720 Descending Jacksonville Center
02:50PM 28.5203 -85.7725 104° East 505 581 37,500 -960 Descending Jacksonville Center
02:51PM 28.4842 -85.6133 104° East 505 581 36,500 -1,080 Descending Jacksonville Center
02:52PM 28.4461 -85.4422 104° East 511 588 35,400 -1,080 Descending Jacksonville Center
02:53PM 28.4114 -85.2903 105° East 511 588 34,400 -1,440 Descending Jacksonville Center
02:54PM 28.3786 -85.1386 104° East 506 582 32,600 -2,100 Descending Jacksonville Center
02:55PM 28.3436 -84.9939 105° East 492 566 30,300 -2,160 Descending Jacksonville Center
02:58PM 28.2769 -84.6850 104° East 479 551 25,800 -1,680 Descending Miami Center
02:59PM 28.2444 -84.5508 105° East 454 522 24,900 -420 Descending Miami Center
03:00PM 28.2064 -84.4047 106° East 438 504 25,000  Climbing Miami Center
03:01PM 28.1794 -84.2831 104° East 438 504 25,000  Level Miami Center
03:02PM 28.1433 -84.1325 105° East 450 518 25,000 -420 Level Miami Center
03:03PM 28.1200 -84.0158 103° East 445 512 24,200 -1,500 Descending Miami Center
03:04PM 28.0847 -83.8867 107° East 434 499 22,100 -2,100 Descending Miami Center
03:05PM 28.0556 -83.7578 104° East 428 493 20,100 -2,100 Descending Miami Center
03:06PM 28.0281 -83.6364 104° East 417 480 18,000 -2,100 Descending Miami Center
03:07PM 27.9981 -83.5172 106° East 401 461 16,000 -2,040 Descending Miami Center
03:08PM 27.9739 -83.4122 105° East 389 448 14,000 -1,980 Descending Miami Center
03:09PM 27.9433 -83.3003 107° East 381 438 12,100 -2,040 Descending Miami Center
03:10PM 27.9203 -83.1650 101° East 371 427 10,000 -1,080 Descending Miami Center
03:11PM 27.9489 -83.0797 69° East 340 391 10,000  Level Miami Center
03:12PM 28.0306 -83.0231 31° Northeast 294 338 10,000 -180 Level Miami Center
03:13PM 28.0961 -82.9561 42° Northeast 301 346 9,700 -840 Descending Miami Center
03:13PM 28.1333 -82.9167 43° Northeast 303 349 8,800 -1,560 Descending Tampa TRACON
03:14PM 28.1167 -82.8333 103° East 294 338 7,400 -900 Descending Tampa TRACON
03:15PM 28.0667 -82.7500 124° Southeast 292 336 7,000 -600 Descending Tampa TRACON
03:16PM 28.0333 -82.6500 111° Southeast 291 335 6,200 -1,020 Descending Tampa TRACON
03:17PM 27.9667 -82.6167 156° South 279 321 5,000 -840 Descending Tampa TRACON
03:18PM 27.9000 -82.6167 180° South 241 277 4,700 -900 Descending Tampa TRACON
03:19PM 27.8333 -82.6167 180° South 222 255 3,300 -1,080 Descending Tampa TRACON
03:20PM 27.7833 -82.6167 180° South 235 270 2,600 -360 Descending Tampa TRACON
03:21PM 27.8000 -82.5500 74° East 213 245 2,600  Level Tampa TRACON